Time;durP1;ratioP1;P1;durP2;ratioP2;P2;SDS_P1;SDS_P2;PMS_P1;PMS_P2;Temp;Humidity;BMP_temperature;BMP_pressure;BME280_temperature;BME280_humidity;BME280_pressure;Samples;Min_cycle;Max_cycle;Signal;HPM_P1;HPM_P2
2022/12/29 00:01:50;;;;;;;3.30;2.50;;;;;;;9.52;100.00;100005.63;5035067;28;20021;-92
2022/12/29 00:04:24;;;;;;;2.33;2.13;;;;;;;9.53;100.00;100003.00;5035270;28;20036;-91
2022/12/29 00:06:52;;;;;;;3.30;2.15;;;;;;;9.50;100.00;99999.63;5035493;28;20100;-92
2022/12/29 00:09:23;;;;;;;2.15;1.90;;;;;;;9.48;100.00;99998.81;5035506;28;20029;-93
2022/12/29 00:11:49;;;;;;;2.30;2.00;;;;;;;9.48;100.00;100006.56;5035564;28;20037;-92
2022/12/29 00:17:08;;;;;;;1.90;1.50;;;;;;;9.49;100.00;99992.75;5040860;28;20409;-93
2022/12/29 00:36:42;;;;;;;1.60;1.00;;;;;;;9.26;100.00;99971.72;5035256;28;20056;-93
2022/12/29 00:44:50;;;;;;;1.40;0.90;;;;;;;9.15;100.00;99970.25;5054214;28;20036;-95
2022/12/29 00:47:15;;;;;;;0.70;0.70;;;;;;;9.10;100.00;99955.69;5054128;28;20021;-94
2022/12/29 00:49:40;;;;;;;0.50;0.50;;;;;;;9.07;100.00;99950.56;5054943;28;20074;-94
2022/12/29 00:52:11;;;;;;;0.90;0.90;;;;;;;9.04;100.00;99948.06;5054199;28;20025;-95
2022/12/29 00:54:39;;;;;;;0.85;0.85;;;;;;;9.01;100.00;99945.53;5054211;28;20040;-94
2022/12/29 00:57:06;;;;;;;0.63;0.63;;;;;;;9.01;100.00;99949.88;5053299;28;20017;-95
2022/12/29 00:59:34;;;;;;;0.60;0.60;;;;;;;9.00;100.00;99946.44;5054701;28;20104;-94
2022/12/29 01:01:59;;;;;;;0.90;0.90;;;;;;;8.97;100.00;99946.50;5054529;28;20021;-94
2022/12/29 01:04:26;;;;;;;1.03;1.03;;;;;;;8.98;100.00;99944.75;5054211;28;20107;-95
2022/12/29 01:06:52;;;;;;;0.90;0.90;;;;;;;8.98;100.00;99929.22;5054189;28;20104;-94
2022/12/29 01:12:03;;;;;;;1.70;1.60;;;;;;;8.99;100.00;99928.34;5034616;28;20072;-94
2022/12/29 01:14:29;;;;;;;1.70;1.60;;;;;;;8.97;100.00;99918.03;5034481;28;20028;-94
2022/12/29 01:16:55;;;;;;;2.13;1.80;;;;;;;8.98;100.00;99917.16;5034513;28;20049;-93
2022/12/29 01:19:21;;;;;;;2.10;1.80;;;;;;;8.98;100.00;99919.75;5033876;28;20041;-95
2022/12/29 01:21:47;;;;;;;1.90;1.80;;;;;;;8.99;100.00;99911.09;5034101;28;20025;-94
2022/12/29 01:24:14;;;;;;;2.67;1.98;;;;;;;9.02;100.00;99912.75;5034289;28;20060;-93
2022/12/29 01:26:39;;;;;;;2.55;1.90;;;;;;;9.09;100.00;99922.91;5033994;28;20025;-95
2022/12/29 01:29:04;;;;;;;2.53;2.10;;;;;;;9.08;100.00;99920.34;5034096;28;20017;-93
2022/12/29 01:31:29;;;;;;;2.30;2.10;;;;;;;9.14;100.00;99912.44;5033766;28;20045;-93
2022/12/29 01:33:55;;;;;;;2.43;1.93;;;;;;;9.21;100.00;99907.97;5034235;28;20045;-94
2022/12/29 01:36:34;;;;;;;1.70;1.60;;;;;;;9.15;100.00;99905.53;5034684;28;20502;-96
2022/12/29 01:38:59;;;;;;;2.42;1.70;;;;;;;9.16;100.00;99902.91;5053856;28;20017;-94
2022/12/29 01:41:25;;;;;;;1.70;1.60;;;;;;;9.17;100.00;99903.75;5053842;28;20025;-94
2022/12/29 01:43:56;;;;;;;3.20;1.70;;;;;;;9.18;100.00;99910.63;5053954;28;20409;-94
2022/12/29 01:46:47;;;;;;;2.17;1.75;;;;;;;9.18;100.00;99908.88;5053874;28;20104;-93
2022/12/29 01:49:18;;;;;;;1.73;1.63;;;;;;;9.21;100.00;99902.81;5053618;28;20104;-94
2022/12/29 01:51:48;;;;;;;1.50;1.40;;;;;;;9.25;100.00;99919.94;5037290;28;20032;-95
2022/12/29 01:54:39;;;;;;;3.13;1.60;;;;;;;9.25;100.00;99905.28;5049612;28;20458;-94
2022/12/29 01:57:14;;;;;;;2.28;1.70;;;;;;;9.33;100.00;99912.00;5053952;28;20029;-92
2022/12/29 01:59:57;;;;;;;1.63;1.38;;;;;;;9.40;100.00;99913.56;5053869;28;20048;-93
2022/12/29 02:02:35;;;;;;;3.00;1.50;;;;;;;9.38;100.00;99907.56;5053324;28;20025;-93
2022/12/29 02:05:09;;;;;;;4.43;1.55;;;;;;;9.45;100.00;99908.25;5053255;28;20036;-93
2022/12/29 02:07:34;;;;;;;2.33;1.23;;;;;;;9.49;100.00;99896.91;5053822;28;20032;-93
2022/12/29 02:10:01;;;;;;;3.57;1.70;;;;;;;9.50;100.00;99904.66;5057576;28;20042;-93
2022/12/29 02:12:37;;;;;;;;;;;;;;;;;;;;;
2022/12/29 02:15:04;;;;;;;2.30;1.60;;;;;;;9.53;100.00;99896.78;5045739;28;20037;-93
2022/12/29 02:17:38;;;;;;;2.25;1.20;;;;;;;9.64;100.00;99895.66;5057521;28;20025;-93
2022/12/29 02:20:27;;;;;;;1.77;1.10;;;;;;;9.63;100.00;99897.41;5057206;28;20087;-94
2022/12/29 02:23:22;;;;;;;3.10;1.40;;;;;;;9.63;100.00;99915.53;5057287;28;20052;-93
2022/12/29 02:26:25;;;;;;;2.58;1.25;;;;;;;9.69;100.00;99912.78;5056828;28;20478;-93
2022/12/29 02:29:09;;;;;;;3.50;1.63;;;;;;;9.68;100.00;99905.88;5056331;28;20036;-93
2022/12/29 02:31:58;;;;;;;2.85;1.30;;;;;;;9.69;100.00;99904.16;5056790;28;20048;-92
2022/12/29 02:34:39;;;;;;;1.65;1.20;;;;;;;9.71;100.00;99884.25;5056957;28;20064;-93
2022/12/29 02:37:37;;;;;;;3.05;1.23;;;;;;;9.72;100.00;99889.38;5057097;28;20033;-92
2022/12/29 02:40:16;;;;;;;1.90;1.20;;;;;;;9.70;100.00;99890.31;5056809;28;20024;-93
2022/12/29 02:43:08;;;;;;;1.80;1.30;;;;;;;9.73;100.00;99904.03;5046995;28;20033;-93
2022/12/29 02:46:01;;;;;;;2.88;1.27;;;;;;;9.68;100.00;99885.16;5037332;28;20033;-93
2022/12/29 02:48:37;;;;;;;2.78;1.42;;;;;;;9.67;100.00;99880.03;5046323;28;20029;-92
2022/12/29 02:51:08;;;;;;;1.63;1.15;;;;;;;9.63;100.00;99887.03;5049007;28;20084;-93
2022/12/29 02:56:20;;;;;;;3.08;1.23;;;;;;;9.68;100.00;99885.16;5044344;28;20535;-93
2022/12/29 02:58:45;;;;;;;1.23;0.80;;;;;;;9.65;100.00;99882.66;5066193;28;20020;-92
2022/12/29 03:01:28;;;;;;;2.23;1.00;;;;;;;9.63;100.00;99881.84;5056680;28;20032;-92
2022/12/29 03:04:10;;;;;;;1.30;0.93;;;;;;;9.60;100.00;99868.97;5061281;28;20025;-91
2022/12/29 03:06:56;;;;;;;1.30;1.00;;;;;;;9.57;100.00;99864.75;5064373;28;20075;-92
2022/12/29 03:09:40;;;;;;;1.55;1.10;;;;;;;9.56;100.00;99872.56;5060768;28;20036;-93
2022/12/29 03:18:24;;;;;;;1.27;1.13;;;;;;;9.57;100.00;99869.06;5048458;28;20060;-92
2022/12/29 03:21:02;;;;;;;3.47;1.20;;;;;;;9.53;100.00;99878.66;5037460;28;20160;-92
2022/12/29 03:23:31;;;;;;;1.75;1.05;;;;;;;9.55;100.00;99863.94;5040563;28;20053;-93
2022/12/29 03:26:01;;;;;;;2.10;1.10;;;;;;;9.54;100.00;99866.56;5037430;28;20029;-93
2022/12/29 03:28:35;;;;;;;3.50;1.33;;;;;;;9.53;100.00;99865.69;5035868;28;20124;-93
2022/12/29 03:31:03;;;;;;;1.65;1.10;;;;;;;9.53;100.00;99867.44;5036118;28;20057;-93
2022/12/29 03:33:30;;;;;;;1.58;0.98;;;;;;;9.55;100.00;99861.34;5036354;28;20037;-92
2022/12/29 03:36:01;;;;;;;2.05;1.13;;;;;;;9.51;100.00;99851.97;5038347;28;20053;-91
2022/12/29 03:38:40;;;;;;;1.90;0.80;;;;;;;9.52;100.00;99853.63;5038125;28;20362;-91
2022/12/29 03:41:28;;;;;;;1.15;1.02;;;;;;;9.48;100.00;99854.63;5064374;22;20121;-92
2022/12/29 03:44:07;;;;;;;1.33;1.00;;;;;;;9.42;100.00;99859.97;5057591;28;20132;-92
2022/12/29 03:46:32;;;;;;;3.42;1.15;;;;;;;9.38;100.00;99854.00;5055374;28;20032;-93
2022/12/29 03:48:58;;;;;;;2.87;1.00;;;;;;;9.36;100.00;99871.31;5055715;28;20036;-92
2022/12/29 03:51:43;;;;;;;3.07;1.40;;;;;;;9.30;100.00;99858.53;5055421;28;20021;-93
2022/12/29 03:54:09;;;;;;;3.00;0.90;;;;;;;9.26;100.00;99859.50;5054614;28;20044;-93
2022/12/29 03:56:34;;;;;;;2.00;1.00;;;;;;;9.20;100.00;99872.63;5055166;28;20029;-92
2022/12/29 03:59:29;;;;;;;3.38;1.00;;;;;;;9.18;100.00;99869.22;5054807;28;20112;-92
2022/12/29 04:01:55;;;;;;;2.93;1.07;;;;;;;9.15;100.00;99867.56;5055335;28;20033;-92
2022/12/29 04:04:20;;;;;;;2.30;1.10;;;;;;;9.11;100.00;99879.75;5034692;28;20043;-92
2022/12/29 04:06:48;;;;;;;2.40;1.17;;;;;;;9.14;100.00;99880.53;5037866;28;20378;-91
2022/12/29 04:09:13;;;;;;;1.63;1.00;;;;;;;9.12;100.00;99894.34;5055109;28;20025;-93
2022/12/29 04:11:48;;;;;;;1.60;1.07;;;;;;;9.14;100.00;99880.53;5055301;28;20028;-92
2022/12/29 04:14:19;;;;;;;2.78;1.15;;;;;;;9.14;100.00;99863.28;5054726;28;20075;-93
2022/12/29 04:16:44;;;;;;;3.88;1.50;;;;;;;9.10;100.00;99879.75;5055390;28;20029;-94
2022/12/29 04:19:09;;;;;;;3.03;1.20;;;;;;;9.04;100.00;99891.09;5054878;28;20021;-94
2022/12/29 04:21:44;;;;;;;1.80;0.97;;;;;;;8.98;100.00;99891.28;5054920;28;20025;-92
2022/12/29 04:24:12;;;;;;;2.45;0.90;;;;;;;8.93;100.00;99893.09;5054503;28;20108;-94
2022/12/29 04:26:38;;;;;;;1.90;1.10;;;;;;;8.90;100.00;99903.50;5055033;28;20039;-95
2022/12/29 04:29:12;;;;;;;3.03;1.03;;;;;;;8.87;100.00;99903.63;5054713;28;20020;-95
2022/12/29 04:31:44;;;;;;;3.65;1.10;;;;;;;8.80;100.00;99892.56;5035799;28;20036;-93
2022/12/29 04:35:01;;;;;;;2.60;0.93;;;;;;;8.77;100.00;99893.47;5034975;28;20029;-94
2022/12/29 04:37:29;;;;;;;1.30;0.80;;;;;;;8.74;100.00;99898.72;5009206;28;20036;-94
2022/12/29 04:40:07;;;;;;;1.70;0.80;;;;;;;8.68;100.00;99898.84;5035026;28;20025;-94
2022/12/29 04:42:42;;;;;;;3.83;1.27;;;;;;;8.69;100.00;99910.06;5032077;28;20053;-95
2022/12/29 04:45:08;;;;;;;2.80;1.23;;;;;;;8.65;100.00;99906.69;5034451;28;20044;-94
2022/12/29 04:47:48;;;;;;;5.70;1.53;;;;;;;8.68;100.00;99904.00;5034595;28;20385;-94
2022/12/29 04:50:14;;;;;;;4.75;1.15;;;;;;;8.61;100.00;99903.28;5034303;28;20072;-93
2022/12/29 04:52:55;;;;;;;4.43;1.40;;;;;;;8.62;100.00;99910.16;5033956;28;20025;-93
2022/12/29 04:55:30;;;;;;;2.55;0.95;;;;;;;8.53;100.00;99919.88;5034455;28;20026;-93
2022/12/29 05:01:38;;;;;;;3.55;1.30;;;;;;;8.48;100.00;99938.94;5034604;28;20068;-94
2022/12/29 05:04:32;;;;;;;3.75;1.15;;;;;;;8.50;100.00;99944.06;5034227;28;20374;-92
2022/12/29 05:07:12;;;;;;;4.13;1.30;;;;;;;8.46;100.00;99925.16;5034373;28;20033;-92
2022/12/29 05:09:37;;;;;;;4.82;1.13;;;;;;;8.50;100.00;99949.22;5034139;28;20048;-92
2022/12/29 05:12:18;;;;;;;4.73;1.20;;;;;;;8.46;100.00;99955.34;5033283;28;20021;-91
2022/12/29 05:14:56;;;;;;;3.53;1.33;;;;;;;8.46;100.00;99958.75;5034173;28;20531;-92
2022/12/29 05:17:21;;;;;;;3.92;1.50;;;;;;;8.44;100.00;99957.97;5033915;28;20025;-92
2022/12/29 05:19:46;;;;;;;5.53;1.27;;;;;;;8.43;100.00;99961.44;5045690;28;20108;-91
2022/12/29 05:22:12;;;;;;;4.03;1.37;;;;;;;8.42;99.72;99969.19;5053499;28;20052;-92
2022/12/29 05:24:43;;;;;;;4.00;1.03;;;;;;;8.42;99.48;99969.19;5053832;28;20059;-93
2022/12/29 05:27:08;;;;;;;3.30;1.10;;;;;;;8.40;99.25;99973.53;5053476;28;20032;-92
2022/12/29 05:29:48;;;;;;;4.77;1.30;;;;;;;8.45;99.02;99966.56;5054050;28;20028;-92
2022/12/29 05:32:14;;;;;;;4.30;1.27;;;;;;;8.46;99.29;99969.09;5054115;28;20028;-92
2022/12/29 05:34:51;;;;;;;3.67;1.23;;;;;;;8.50;100.00;99975.97;5054123;28;20103;-93
2022/12/29 05:37:16;;;;;;;;;;;;;;;8.52;99.16;99978.50;5037975;28;20021;-92
2022/12/29 05:39:41;;;;;;;5.03;1.33;;;;;;;8.55;98.19;99993.13;5033898;28;19909;-92
2022/12/29 05:42:13;;;;;;;2.85;1.10;;;;;;;8.57;97.88;99986.16;5032051;28;20517;-92
2022/12/29 05:44:41;;;;;;;2.80;1.20;;;;;;;8.56;98.37;99987.91;5037559;28;20055;-92
2022/12/29 05:47:06;;;;;;;2.85;1.00;;;;;;;8.57;98.88;99991.34;5037820;28;20022;-91
2022/12/29 05:49:43;;;;;;;2.10;1.00;;;;;;;8.56;99.24;99987.91;5038515;28;20029;-91
2022/12/29 05:52:15;;;;;;;2.83;1.30;;;;;;;8.54;98.80;100002.59;5040424;28;20022;-91
2022/12/29 05:54:40;;;;;;;3.13;0.98;;;;;;;8.54;98.62;100005.19;5043200;28;20059;-92
2022/12/29 06:00:45;;;;;;;3.13;1.20;;;;;;;8.62;96.57;100005.88;5038396;28;20084;-92
2022/12/29 06:03:22;;;;;;;4.90;1.40;;;;;;;8.72;96.89;100006.53;5037038;28;20053;-91
2022/12/29 06:05:48;;;;;;;3.65;1.30;;;;;;;8.66;96.30;99988.59;5037457;28;20017;-92
2022/12/29 06:08:16;;;;;;;1.93;1.13;;;;;;;8.70;95.55;100003.13;5037615;28;20541;-92
2022/12/29 06:10:44;;;;;;;3.25;1.27;;;;;;;8.74;95.94;100016.84;5037251;28;20049;-92
2022/12/29 06:13:15;;;;;;;3.97;1.48;;;;;;;8.74;96.15;100011.69;5037543;28;20192;-92
2022/12/29 06:15:48;;;;;;;1.45;0.88;;;;;;;8.75;95.72;100009.06;5037507;28;20025;-92
2022/12/29 06:18:14;;;;;;;3.40;1.27;;;;;;;8.76;96.01;99995.25;5055667;28;20056;-91
2022/12/29 06:20:59;;;;;;;2.97;1.00;;;;;;;8.75;95.46;100000.44;5057450;28;20021;-92
2022/12/29 06:23:25;;;;;;;1.92;1.00;;;;;;;8.75;95.46;100003.91;5057147;28;20083;-91
2022/12/29 06:26:08;;;;;;;5.90;1.50;;;;;;;8.81;94.73;99998.59;5057125;28;20389;-91
2022/12/29 06:28:46;;;;;;;2.78;1.13;;;;;;;8.77;95.56;99988.34;5056928;28;20116;-91
2022/12/29 06:31:11;;;;;;;1.55;1.00;;;;;;;8.77;95.06;100002.16;5056983;28;20024;-92
2022/12/29 06:33:46;;;;;;;3.37;1.30;;;;;;;8.77;93.83;99994.38;5057237;28;20021;-92
2022/12/29 06:36:20;;;;;;;6.25;1.35;;;;;;;8.78;94.94;99992.63;5056599;28;20390;-93
2022/12/29 06:38:52;;;;;;;4.72;1.60;;;;;;;8.80;93.18;99991.69;5053444;28;20171;-91
2022/12/29 06:41:17;;;;;;;2.85;1.13;;;;;;;8.83;92.78;99997.69;5052343;28;20044;-93
2022/12/29 06:43:51;;;;;;;6.30;1.40;;;;;;;8.79;93.25;99979.66;5057015;28;20405;-91
2022/12/29 06:46:20;;;;;;;3.45;1.27;;;;;;;8.76;93.18;99997.84;5056668;28;20036;-90
2022/12/29 06:48:45;;;;;;;7.15;1.27;;;;;;;8.70;93.16;99977.25;5042357;28;20036;-89
2022/12/29 06:51:11;;;;;;;6.23;1.33;;;;;;;8.71;93.04;99986.72;5055955;28;20472;-89
2022/12/29 06:53:36;;;;;;;6.00;1.40;;;;;;;8.74;93.85;99989.25;5055727;28;20075;-89
2022/12/29 06:56:43;;;;;;;;;;;;;;;;;;;;;
2022/12/29 06:59:10;;;;;;;5.78;1.52;;;;;;;8.71;93.39;99986.72;5044128;28;20037;-87
2022/12/29 07:01:35;;;;;;;4.73;1.20;;;;;;;8.72;93.12;99992.78;5053800;28;20104;-87
2022/12/29 07:04:07;;;;;;;2.50;1.17;;;;;;;8.70;92.82;99989.38;5049678;28;20028;-87
2022/12/29 07:06:32;;;;;;;3.22;1.20;;;;;;;8.68;92.77;99999.72;5053214;28;20040;-87
2022/12/29 07:09:04;;;;;;;2.80;1.03;;;;;;;8.67;92.90;100003.19;5035763;28;20029;-87
2022/12/29 07:11:29;;;;;;;5.35;1.35;;;;;;;8.74;93.38;100009.97;5039384;28;20045;-86
2022/12/29 07:14:03;;;;;;;4.87;1.60;;;;;;;8.74;92.83;100015.13;5034640;28;20509;-86
2022/12/29 07:16:42;;;;;;;4.75;1.67;;;;;;;8.75;93.18;100005.63;5036440;28;20371;-86
2022/12/29 07:19:15;;;;;;;6.25;1.52;;;;;;;8.74;92.79;100022.03;5045376;28;20025;-86
2022/12/29 07:21:46;;;;;;;5.57;1.35;;;;;;;8.74;91.65;100024.63;5035248;28;20029;-85
2022/12/29 07:24:12;;;;;;;6.72;1.45;;;;;;;8.74;91.34;100033.25;5053912;28;20033;-85
2022/12/29 07:26:37;;;;;;;9.73;1.93;;;;;;;8.72;89.84;100032.41;5040667;28;20087;-85
2022/12/29 07:29:03;;;;;;;4.07;1.50;;;;;;;8.79;91.17;100033.97;5046115;28;20024;-85
2022/12/29 07:31:32;;;;;;;7.65;1.55;;;;;;;8.80;89.81;100056.38;5054536;28;20071;-85
2022/12/29 07:33:57;;;;;;;4.13;1.40;;;;;;;8.90;90.69;100048.44;5091815;23;20059;-86
2022/12/29 07:36:23;;;;;;;3.47;1.10;;;;;;;8.83;90.34;100054.63;5092702;28;20020;-85
2022/12/29 07:38:48;;;;;;;5.57;1.60;;;;;;;8.82;88.85;100056.38;5093661;28;20040;-85
2022/12/29 07:41:13;;;;;;;3.90;1.30;;;;;;;8.75;89.15;100058.22;5092236;28;20035;-85
2022/12/29 07:43:39;;;;;;;7.78;1.80;;;;;;;8.73;88.69;100054.81;5094305;28;20035;-86
2022/12/29 07:46:04;;;;;;;6.10;2.10;;;;;;;8.71;88.09;100061.75;5094432;28;20479;-84
2022/12/29 07:48:29;;;;;;;3.83;1.33;;;;;;;8.70;89.10;100057.47;5094514;28;20016;-85
2022/12/29 07:50:55;;;;;;;4.97;1.30;;;;;;;8.69;88.17;100049.75;5095082;28;20449;-86
2022/12/29 07:53:20;;;;;;;5.10;1.60;;;;;;;8.71;88.04;100060.91;5094627;28;20062;-85
2022/12/29 07:55:45;;;;;;;5.30;1.33;;;;;;;8.72;88.61;100055.69;5095117;28;20038;-87
2022/12/29 07:58:11;;;;;;;4.10;1.57;;;;;;;8.75;88.93;100062.53;5095026;28;20055;-89
2022/12/29 08:00:38;;;;;;;7.53;1.67;;;;;;;8.77;87.84;100058.19;5095159;28;20130;-89
2022/12/29 08:03:04;;;;;;;6.03;1.88;;;;;;;8.78;89.64;100054.72;5094515;28;20028;-90
2022/12/29 08:05:31;;;;;;;4.70;1.63;;;;;;;8.76;88.88;100075.47;5093278;28;20441;-90
2022/12/29 08:07:56;;;;;;;5.70;2.13;;;;;;;8.76;89.14;100062.53;5095231;28;20020;-89
2022/12/29 08:10:22;;;;;;;3.87;1.40;;;;;;;8.79;88.95;100067.63;5265015;22;20088;-89
2022/12/29 08:12:47;;;;;;;6.77;2.07;;;;;;;8.77;88.63;100071.13;5095035;28;20036;-90
2022/12/29 08:15:12;;;;;;;4.90;1.50;;;;;;;8.77;89.37;100077.16;5095355;28;20472;-90
2022/12/29 08:17:38;;;;;;;8.37;1.77;;;;;;;8.81;88.13;100070.19;5094494;28;20103;-90
2022/12/29 08:20:07;;;;;;;6.47;1.60;;;;;;;8.86;88.70;100085.63;5094457;28;20024;-90
2022/12/29 08:22:33;;;;;;;7.70;1.70;;;;;;;8.82;87.45;100064.13;5094597;28;20029;-89
2022/12/29 08:25:03;;;;;;;8.27;2.13;;;;;;;8.88;86.43;100084.69;5094277;28;20024;-89
2022/12/29 08:27:28;;;;;;;8.23;1.63;;;;;;;8.90;86.69;100075.19;5094729;28;20084;-89
2022/12/29 08:30:00;;;;;;;7.10;1.60;;;;;;;8.93;86.14;100089.78;5094760;28;20028;-89
2022/12/29 08:32:41;;;;;;;5.90;1.70;;;;;;;8.96;86.03;100087.97;5094063;28;20477;-89
2022/12/29 08:35:06;;;;;;;6.43;1.83;;;;;;;9.00;85.93;100078.44;5075732;28;20025;-89
2022/12/29 08:37:33;;;;;;;5.63;1.83;;;;;;;8.98;85.64;100080.19;5074484;28;20420;-89
2022/12/29 08:40:03;;;;;;;;;;;;;;;9.04;84.91;100087.81;5075221;28;20024;-89
2022/12/29 08:42:30;;;;;;;8.50;1.70;;;;;;;9.01;85.65;100069.75;5075924;28;19954;-88
2022/12/29 08:51:01;;;;;;;5.97;1.75;;;;;;;9.03;85.93;100078.34;5192241;22;20464;-89
2022/12/29 08:53:26;;;;;;;5.53;1.88;;;;;;;9.05;85.12;100074.00;5053222;28;20029;-89
2022/12/29 08:55:57;;;;;;;4.87;1.60;;;;;;;9.10;84.29;100077.34;5048604;28;20019;-89
2022/12/29 08:58:23;;;;;;;8.48;1.70;;;;;;;9.17;83.37;100079.78;5054046;28;20446;-89
2022/12/29 09:01:01;;;;;;;7.77;1.87;;;;;;;9.24;84.13;100068.41;5053838;28;20044;-89
2022/12/29 09:03:26;;;;;;;5.22;2.00;;;;;;;9.19;83.40;100083.22;5050667;28;20075;-89
2022/12/29 09:05:53;;;;;;;6.73;1.70;;;;;;;9.20;83.50;100066.78;5034139;28;20021;-89
2022/12/29 09:08:22;;;;;;;;;;;;;;;9.22;84.45;100083.16;5034438;28;20032;-89
2022/12/29 09:10:48;;;;;;;7.72;1.77;;;;;;;9.19;83.33;100097.00;5034353;28;19920;-89
2022/12/29 09:13:45;;;;;;;7.93;1.80;;;;;;;9.19;84.07;100085.78;5034003;28;20033;-90
2022/12/29 09:16:17;;;;;;;9.13;1.83;;;;;;;9.20;84.58;100093.53;5027245;28;20497;-90
2022/12/29 09:18:55;;;;;;;7.00;1.80;;;;;;;9.21;84.75;100099.56;5032804;28;20047;-89
2022/12/29 09:21:30;;;;;;;8.23;1.77;;;;;;;9.20;84.55;100096.09;5033508;28;20026;-89
2022/12/29 09:24:05;;;;;;;6.68;1.75;;;;;;;9.19;85.51;100114.28;5042943;28;20350;-89
2022/12/29 09:26:43;;;;;;;7.00;1.85;;;;;;;9.17;85.50;100111.72;5052871;28;20071;-89
2022/12/29 09:29:08;;;;;;;9.40;2.10;;;;;;;9.15;86.81;100110.03;5053015;28;20029;-89
2022/12/29 09:31:39;;;;;;;7.53;1.80;;;;;;;9.04;89.06;100112.88;5053731;28;20519;-91
2022/12/29 09:34:16;;;;;;;10.48;1.90;;;;;;;8.96;88.11;100113.00;5051965;28;20393;-86
2022/12/29 09:36:42;;;;;;;8.43;1.83;;;;;;;8.97;87.84;100130.25;5053036;28;20032;-87
2022/12/29 09:39:07;;;;;;;8.50;1.70;;;;;;;8.96;88.78;100125.97;5052994;28;20039;-89
2022/12/29 09:42:02;;;;;;;6.07;2.23;;;;;;;8.91;88.07;100138.13;5053437;28;20112;-89
2022/12/29 09:44:55;;;;;;;7.78;1.80;;;;;;;8.95;88.75;100135.44;5053304;28;20024;-89
2022/12/29 09:47:31;;;;;;;6.85;2.00;;;;;;;8.90;89.30;100139.88;5053035;28;20033;-89
2022/12/29 09:50:18;;;;;;;7.55;1.50;;;;;;;8.94;88.95;100136.34;5059266;23;20504;-88
2022/12/29 09:53:07;;;;;;;8.18;1.73;;;;;;;8.96;88.95;100149.25;5039216;28;20508;-89
2022/12/29 09:55:40;;;;;;;6.60;1.60;;;;;;;8.94;89.39;100156.19;5052809;28;20098;-88
2022/12/29 09:58:15;;;;;;;8.68;1.80;;;;;;;8.91;90.32;100154.50;5053515;28;20028;-89
2022/12/29 10:00:53;;;;;;;4.75;1.70;;;;;;;8.92;90.47;100160.53;5053198;28;20048;-89
2022/12/29 10:03:20;;;;;;;6.32;1.70;;;;;;;8.90;90.72;100159.69;5052474;28;20119;-88
2022/12/29 10:05:57;;;;;;;7.25;2.10;;;;;;;8.87;91.16;100178.75;5053660;28;20457;-89
2022/12/29 10:08:44;;;;;;;7.03;1.92;;;;;;;8.90;91.42;100185.56;5053287;28;20037;-88
2022/12/29 10:11:54;;;;;;;6.65;1.75;;;;;;;8.84;91.31;100190.88;5052715;28;20032;-89
2022/12/29 10:14:55;;;;;;;9.15;2.05;;;;;;;8.79;92.69;100196.97;5019566;28;20508;-90
2022/12/29 10:17:26;;;;;;;8.23;2.00;;;;;;;8.71;92.96;100209.22;5054018;28;20071;-90
2022/12/29 10:20:31;;;;;;;9.05;1.88;;;;;;;8.67;93.60;100209.31;5060029;28;20218;-90
2022/12/29 10:23:08;;;;;;;6.30;1.63;;;;;;;8.62;94.16;100209.38;5053093;28;20488;-91
2022/12/29 10:25:38;;;;;;;7.32;1.73;;;;;;;8.57;95.68;100209.47;5070451;28;20376;-90
2022/12/29 10:28:15;;;;;;;8.18;1.65;;;;;;;8.57;95.03;100222.41;5073415;28;20029;-90
2022/12/29 10:30:41;;;;;;;4.97;1.40;;;;;;;8.52;96.36;100218.19;5076373;28;20029;-91
2022/12/29 10:33:11;;;;;;;7.00;1.57;;;;;;;8.49;96.26;100240.63;5076481;28;20023;-90
2022/12/29 10:35:40;;;;;;;6.80;1.50;;;;;;;8.46;96.14;100240.63;5072375;28;20024;-90
2022/12/29 10:38:42;;;;;;;5.18;1.77;;;;;;;8.41;97.65;100249.34;5057199;28;20025;-91
2022/12/29 10:41:36;;;;;;;6.40;1.30;;;;;;;8.35;98.42;100251.16;5069640;28;20390;-91
2022/12/29 10:44:01;;;;;;;4.50;1.70;;;;;;;8.34;98.69;100246.88;5060909;28;20021;-91
2022/12/29 10:46:34;;;;;;;4.93;1.47;;;;;;;8.27;99.26;100246.97;5057765;28;20040;-92
2022/12/29 10:49:01;;;;;;;2.80;1.30;;;;;;;8.23;99.67;100255.66;5056915;28;20104;-91
2022/12/29 10:51:44;;;;;;;5.57;1.70;;;;;;;8.16;100.00;100253.16;5060342;28;20055;-92
2022/12/29 10:54:35;;;;;;;5.22;1.58;;;;;;;8.13;100.00;100248.03;5079502;28;20021;-91
2022/12/29 10:57:10;;;;;;;6.03;1.75;;;;;;;8.15;100.00;100266.13;5078546;28;20044;-92
2022/12/29 10:59:36;;;;;;;6.40;1.67;;;;;;;8.18;100.00;100269.50;5059847;28;20025;-89
2022/12/29 11:02:11;;;;;;;9.00;1.80;;;;;;;8.23;100.00;100259.09;5072641;28;20047;-91
2022/12/29 11:04:59;;;;;;;6.20;1.55;;;;;;;8.26;100.00;100276.28;5076973;28;20123;-89
2022/12/29 11:07:25;;;;;;;8.60;1.92;;;;;;;8.28;100.00;100272.78;5085878;28;20153;-90
2022/12/29 11:09:51;;;;;;;5.45;1.60;;;;;;;8.30;99.97;100296.06;5090942;28;20029;-90
2022/12/29 11:12:24;;;;;;;7.03;1.77;;;;;;;8.32;100.00;100304.66;5098064;28;20015;-90
2022/12/29 11:15:08;;;;;;;3.40;1.42;;;;;;;8.28;100.00;100308.16;5097220;28;20036;-88
2022/12/29 11:18:16;;;;;;;8.10;1.60;;;;;;;8.27;99.97;100302.16;5072609;28;20032;-90
2022/12/29 11:20:42;;;;;;;5.18;1.60;;;;;;;8.25;100.00;100296.13;5087806;28;20075;-90
2022/12/29 11:23:48;;;;;;;4.03;1.50;;;;;;;8.27;100.00;100299.56;5080528;28;20020;-91
2022/12/29 11:26:21;;;;;;;6.07;1.58;;;;;;;8.26;100.00;100295.25;5082005;28;20047;-90
2022/12/29 11:29:24;;;;;;;9.05;2.15;;;;;;;8.23;100.00;100303.06;5078438;28;20078;-91
2022/12/29 11:36:05;;;;;;;7.30;2.15;;;;;;;8.34;99.44;100315.81;5077728;28;20092;-91
2022/12/29 11:38:49;;;;;;;8.13;2.00;;;;;;;8.39;99.55;100314.03;5076630;28;20057;-90
2022/12/29 11:41:26;;;;;;;9.52;2.22;;;;;;;8.45;98.62;100307.91;5074520;28;20024;-89
2022/12/29 11:44:01;;;;;;;8.75;2.00;;;;;;;8.45;97.80;100321.69;5074425;28;20457;-89
2022/12/29 11:46:34;;;;;;;7.25;2.00;;;;;;;8.47;97.85;100312.19;5075260;28;20039;-90
2022/12/29 11:49:05;;;;;;;9.52;2.10;;;;;;;8.49;96.86;100315.63;5059011;28;20028;-90
2022/12/29 11:51:46;;;;;;;6.72;2.03;;;;;;;8.54;97.05;100320.72;5053905;28;20081;-90
2022/12/29 11:54:33;;;;;;;7.32;1.88;;;;;;;8.54;97.32;100330.22;5055519;28;20033;-91
2022/12/29 11:57:15;;;;;;;6.65;2.20;;;;;;;8.53;97.77;100333.69;5055264;28;20534;-88
2022/12/29 11:59:48;;;;;;;7.22;2.10;;;;;;;8.53;97.65;100334.53;5055040;28;20024;-89
2022/12/29 12:02:20;;;;;;;5.13;2.35;;;;;;;8.56;97.71;100323.28;5054509;28;20033;-90
2022/12/29 12:04:47;;;;;;;9.07;2.05;;;;;;;8.57;97.14;100338.78;5055463;28;20035;-90
2022/12/29 12:07:17;;;;;;;4.03;1.83;;;;;;;8.60;97.11;100341.34;5055043;28;20119;-90
2022/12/29 12:09:50;;;;;;;6.50;1.80;;;;;;;8.63;97.12;100328.34;5055105;28;20118;-90
2022/12/29 12:12:22;;;;;;;8.75;2.00;;;;;;;8.68;96.59;100338.59;5071028;28;20104;-90
2022/12/29 12:14:59;;;;;;;6.72;1.80;;;;;;;8.73;96.58;100342.00;5055036;28;20500;-91
2022/12/29 12:17:40;;;;;;;8.38;2.00;;;;;;;8.79;96.13;100341.88;5054772;28;20071;-89
2022/12/29 12:20:25;;;;;;;5.82;1.80;;;;;;;8.81;95.67;100344.47;5055844;28;20037;-90
2022/12/29 12:22:54;;;;;;;7.65;2.13;;;;;;;8.80;95.11;100342.75;5054962;28;20555;-88
2022/12/29 12:25:27;;;;;;;9.18;1.90;;;;;;;8.77;93.83;100340.22;5055006;28;20033;-90
2022/12/29 12:28:01;;;;;;;9.15;1.92;;;;;;;8.78;94.62;100341.91;5054811;28;20032;-89
2022/12/29 12:30:40;;;;;;;7.93;1.80;;;;;;;8.77;94.02;100335.03;5054465;28;20033;-90
2022/12/29 12:33:16;;;;;;;9.98;2.30;;;;;;;8.81;93.62;100352.22;5053945;28;20037;-91
2022/12/29 12:35:46;;;;;;;6.57;1.85;;;;;;;8.85;94.27;100328.00;5060777;28;20466;-90
2022/12/29 12:38:37;;;;;;;5.15;1.60;;;;;;;8.90;93.79;100340.84;5053870;28;20033;-91
2022/12/29 12:41:30;;;;;;;6.57;1.70;;;;;;;8.94;93.57;100339.94;5054252;28;20112;-89
2022/12/29 12:44:33;;;;;;;7.05;1.88;;;;;;;9.00;93.80;100326.91;5072821;28;20067;-89
2022/12/29 12:47:22;;;;;;;7.88;2.00;;;;;;;9.14;92.16;100336.16;4993023;28;20042;-90
2022/12/29 12:50:06;;;;;;;7.93;1.92;;;;;;;9.27;92.12;100330.75;4993332;28;20150;-90
2022/12/29 12:52:54;;;;;;;10.18;2.10;;;;;;;9.40;89.00;100346.06;4979151;28;20700;-89
2022/12/29 12:55:51;;;;;;;8.38;2.40;;;;;;;9.47;88.85;100349.38;4992952;28;20477;-92
2022/12/29 12:58:19;;;;;;;6.47;1.90;;;;;;;9.45;87.23;100352.00;4916077;29;20135;-91
2022/12/29 13:01:14;;;;;;;8.52;1.98;;;;;;;9.46;86.36;100353.69;4990662;28;20390;-90
2022/12/29 13:04:26;;;;;;;6.45;1.90;;;;;;;9.41;87.56;100345.16;5017945;28;20385;-91